Time;durP1;ratioP1;P1;durP2;ratioP2;P2;SDS_P1;SDS_P2;PMS_P1;PMS_P2;Temp;Humidity;BMP_temperature;BMP_pressure;BME280_temperature;BME280_humidity;BME280_pressure;Samples;Min_cycle;Max_cycle;Signal;HPM_P1;HPM_P2
2022/06/07 00:02:30;;;;;;;10.75;5.65;;;;;;;;;;5026303;28;20124;-89
2022/06/07 00:04:57;;;;;;;7.35;5.15;;;;;;;;;;5035651;28;20028;-89
2022/06/07 00:07:24;;;;;;;11.15;5.25;;;;;;;;;;5047676;28;20025;-91
2022/06/07 00:09:50;;;;;;;14.95;4.95;;;;;;;;;;5027774;28;20116;-89
2022/06/07 00:12:20;;;;;;;15.38;5.35;;;;;;;;;;5020925;28;20025;-90
2022/06/07 00:14:46;;;;;;;12.57;5.53;;;;;;;;;;5028369;28;20036;-90
2022/06/07 00:17:13;;;;;;;13.43;5.47;;;;;;;;;;5025775;28;20032;-89
2022/06/07 00:19:39;;;;;;;12.77;5.47;;;;;;;;;;5022255;28;20048;-91
2022/06/07 00:22:05;;;;;;;11.55;5.20;;;;;;;;;;5019024;28;20029;-90
2022/06/07 00:24:31;;;;;;;9.07;5.25;;;;;;;;;;5025781;28;20167;-90
2022/06/07 00:26:57;;;;;;;10.60;6.03;;;;;;;;;;5024504;28;20514;-91
2022/06/07 00:29:24;;;;;;;11.68;5.50;;;;;;;;;;5027182;28;20160;-90
2022/06/07 00:31:50;;;;;;;11.25;5.88;;;;;;;;;;5026448;28;20114;-89
2022/06/07 00:34:16;;;;;;;10.10;5.03;;;;;;;;;;5027803;28;20104;-90
2022/06/07 00:36:42;;;;;;;15.60;5.85;;;;;;;;;;5025239;28;20079;-90
2022/06/07 00:39:09;;;;;;;11.57;4.97;;;;;;;;;;5028726;28;20119;-90
2022/06/07 00:41:35;;;;;;;11.20;5.32;;;;;;;;;;5030209;28;20503;-91
2022/06/07 00:44:21;;;;;;;5.38;3.35;;;;;;;;;;5032858;28;20047;-89
2022/06/07 00:46:51;;;;;;;7.13;4.43;;;;;;;;;;5021023;28;20552;-90
2022/06/07 00:49:17;;;;;;;12.77;5.72;;;;;;;;;;5020868;28;20021;-89
2022/06/07 00:51:44;;;;;;;12.98;6.90;;;;;;;;;;5046204;28;20106;-89
2022/06/07 00:54:11;;;;;;;13.52;5.82;;;;;;;;;;5029215;28;20032;-90
2022/06/07 00:56:37;;;;;;;15.10;6.03;;;;;;;;;;5045233;28;20060;-90
2022/06/07 00:59:03;;;;;;;15.52;6.85;;;;;;;;;;5029581;28;20048;-90
2022/06/07 01:01:31;;;;;;;13.85;7.07;;;;;;;;;;5024397;28;20024;-90
2022/06/07 01:03:57;;;;;;;9.07;4.78;;;;;;;;;;5024621;28;20070;-90
2022/06/07 01:12:03;;;;;;;11.88;5.50;;;;;;;;;;4978804;28;20049;-89
2022/06/07 01:14:29;;;;;;;14.32;6.85;;;;;;;;;;5040680;28;20033;-90
2022/06/07 01:16:55;;;;;;;12.75;5.47;;;;;;;;;;5028817;28;20028;-91
2022/06/07 01:19:21;;;;;;;11.40;3.88;;;;;;;;;;5043613;28;20029;-90
2022/06/07 01:21:47;;;;;;;10.95;5.65;;;;;;;;;;5031100;28;20029;-91
2022/06/07 01:24:14;;;;;;;15.00;6.82;;;;;;;;;;5042525;28;20025;-89
2022/06/07 01:26:40;;;;;;;8.98;5.40;;;;;;;;;;5045658;28;20049;-89
2022/06/07 01:29:13;;;;;;;19.50;5.53;;;;;;;;;;5017974;28;20045;-90
2022/06/07 01:31:40;;;;;;;14.23;6.75;;;;;;;;;;5043350;28;20497;-89
2022/06/07 01:34:06;;;;;;;12.82;6.53;;;;;;;;;;5021068;28;20614;-91
2022/06/07 01:36:32;;;;;;;12.68;5.18;;;;;;;;;;5044210;28;20168;-90
2022/06/07 01:41:55;;;;;;;13.68;6.22;;;;;;;;;;5044438;28;20094;-90
2022/06/07 01:44:32;;;;;;;15.93;6.15;;;;;;;;;;5023926;28;20551;-90
2022/06/07 01:46:59;;;;;;;14.10;6.57;;;;;;;;;;5022804;28;20025;-89
2022/06/07 01:49:25;;;;;;;14.70;6.07;;;;;;;;;;5026219;28;20025;-89
2022/06/07 01:51:52;;;;;;;9.60;5.55;;;;;;;;;;5026154;28;20021;-90
2022/06/07 01:54:18;;;;;;;13.80;6.13;;;;;;;;;;5033343;28;20022;-90
2022/06/07 01:56:44;;;;;;;20.33;7.50;;;;;;;;;;5041163;28;20029;-89
2022/06/07 01:59:11;;;;;;;16.10;6.57;;;;;;;;;;5017205;28;20033;-90
2022/06/07 02:01:37;;;;;;;15.32;6.95;;;;;;;;;;5018129;28;20056;-90
2022/06/07 02:04:04;;;;;;;12.35;6.65;;;;;;;;;;5036307;28;20078;-91
2022/06/07 02:06:30;;;;;;;16.15;5.90;;;;;;;;;;5038974;28;20029;-90
2022/06/07 02:08:56;;;;;;;13.95;7.35;;;;;;;;;;5026352;28;20033;-90
2022/06/07 02:11:23;;;;;;;10.07;4.38;;;;;;;;;;5025015;28;20029;-90
2022/06/07 02:13:50;;;;;;;18.15;6.43;;;;;;;;;;5022185;28;20078;-90
2022/06/07 02:16:16;;;;;;;10.25;4.88;;;;;;;;;;5040083;28;20087;-90
2022/06/07 02:18:42;;;;;;;20.35;8.35;;;;;;;;;;5041212;28;20489;-90
2022/06/07 02:21:09;;;;;;;16.65;6.93;;;;;;;;;;5034920;28;20079;-90
2022/06/07 02:23:36;;;;;;;17.75;7.70;;;;;;;;;;5038993;28;20511;-89
2022/06/07 02:26:13;;;;;;;14.95;7.55;;;;;;;;;;5033380;28;20029;-90
2022/06/07 02:28:40;;;;;;;14.10;7.28;;;;;;;;;;5025111;28;20056;-91
2022/06/07 02:31:08;;;;;;;16.73;5.65;;;;;;;;;;5023174;28;20045;-90
2022/06/07 02:33:35;;;;;;;12.48;6.45;;;;;;;;;;5017568;28;20032;-89
2022/06/07 02:36:01;;;;;;;11.18;5.18;;;;;;;;;;5014478;28;20041;-90
2022/06/07 02:38:27;;;;;;;19.85;7.07;;;;;;;;;;5040669;28;20593;-90
2022/06/07 02:40:53;;;;;;;8.77;4.85;;;;;;;;;;5017271;28;20033;-90
2022/06/07 02:43:20;;;;;;;15.15;6.97;;;;;;;;;;5025103;28;20439;-90
2022/06/07 02:45:46;;;;;;;13.68;7.60;;;;;;;;;;5018283;28;20025;-91
2022/06/07 02:48:12;;;;;;;10.18;5.00;;;;;;;;;;5020057;28;20171;-90
2022/06/07 02:50:38;;;;;;;20.08;8.15;;;;;;;;;;5024412;28;20056;-90
2022/06/07 02:53:05;;;;;;;13.07;7.60;;;;;;;;;;5022973;28;20412;-91
2022/06/07 02:55:32;;;;;;;17.08;7.80;;;;;;;;;;5040248;28;20388;-90
2022/06/07 02:57:59;;;;;;;9.80;5.43;;;;;;;;;;5021177;28;20513;-90
2022/06/07 03:00:25;;;;;;;17.70;6.85;;;;;;;;;;5020658;28;20555;-90
2022/06/07 03:02:51;;;;;;;17.98;8.05;;;;;;;;;;5018656;28;20510;-91
2022/06/07 03:05:17;;;;;;;23.02;7.03;;;;;;;;;;5026636;28;20463;-90
2022/06/07 03:07:43;;;;;;;12.98;7.30;;;;;;;;;;5020908;28;20040;-90
2022/06/07 03:10:11;;;;;;;13.88;5.57;;;;;;;;;;5024379;28;20034;-91
2022/06/07 03:12:37;;;;;;;16.88;7.63;;;;;;;;;;5020622;28;20064;-90
2022/06/07 03:15:04;;;;;;;24.55;9.23;;;;;;;;;;5030959;28;20027;-92
2022/06/07 03:17:30;;;;;;;17.67;6.90;;;;;;;;;;5027232;28;20036;-91
2022/06/07 03:19:56;;;;;;;19.95;6.90;;;;;;;;;;5025226;28;20029;-91
2022/06/07 03:22:32;;;;;;;19.15;7.25;;;;;;;;;;5020510;28;20075;-92
2022/06/07 03:25:01;;;;;;;13.63;4.78;;;;;;;;;;5028473;28;20374;-91
2022/06/07 03:27:27;;;;;;;20.85;8.35;;;;;;;;;;5025984;28;20052;-91
2022/06/07 03:29:53;;;;;;;7.82;4.25;;;;;;;;;;5030367;28;20036;-90
2022/06/07 03:32:20;;;;;;;13.82;6.18;;;;;;;;;;5027016;28;20021;-91
2022/06/07 03:34:46;;;;;;;17.67;5.35;;;;;;;;;;5032428;28;20116;-91
2022/06/07 03:37:12;;;;;;;13.40;6.28;;;;;;;;;;5026939;28;20523;-91
2022/06/07 03:39:38;;;;;;;19.98;5.93;;;;;;;;;;5025941;28;20026;-91
2022/06/07 03:42:04;;;;;;;12.93;6.40;;;;;;;;;;5027252;28;20024;-91
2022/06/07 03:44:30;;;;;;;7.47;4.13;;;;;;;;;;5025072;28;20064;-92
2022/06/07 03:46:56;;;;;;;19.05;7.15;;;;;;;;;;5023584;28;20076;-90
2022/06/07 03:49:23;;;;;;;14.43;4.15;;;;;;;;;;5025819;28;20044;-91
2022/06/07 03:51:50;;;;;;;12.90;5.72;;;;;;;;;;5026051;28;20029;-91
2022/06/07 03:54:16;;;;;;;18.63;7.93;;;;;;;;;;5027964;28;20150;-90
2022/06/07 03:56:42;;;;;;;18.15;6.88;;;;;;;;;;5023498;28;20033;-91
2022/06/07 03:59:08;;;;;;;17.17;8.35;;;;;;;;;;5024512;28;20086;-90
2022/06/07 04:01:34;;;;;;;17.83;8.48;;;;;;;;;;5015295;28;20037;-91
2022/06/07 04:04:03;;;;;;;19.02;8.32;;;;;;;;;;5022941;28;20037;-90
2022/06/07 04:06:31;;;;;;;12.25;4.63;;;;;;;;;;5026041;28;20106;-90
2022/06/07 04:08:57;;;;;;;19.42;8.23;;;;;;;;;;5028106;28;20110;-91
2022/06/07 04:11:24;;;;;;;16.60;6.85;;;;;;;;;;5029015;28;20502;-91
2022/06/07 04:13:51;;;;;;;17.23;5.75;;;;;;;;;;5025025;28;20028;-91
2022/06/07 04:16:19;;;;;;;19.73;6.25;;;;;;;;;;5029405;28;20443;-90
2022/06/07 04:18:46;;;;;;;22.48;7.53;;;;;;;;;;5028131;28;20068;-91
2022/06/07 04:21:12;;;;;;;18.58;7.68;;;;;;;;;;5022508;28;20033;-90
2022/06/07 04:23:38;;;;;;;12.60;6.10;;;;;;;;;;5026059;28;20095;-92
2022/06/07 04:26:05;;;;;;;18.77;8.27;;;;;;;;;;5027212;28;20040;-91
2022/06/07 04:28:31;;;;;;;11.73;6.00;;;;;;;;;;5019285;28;20085;-91
2022/06/07 04:30:57;;;;;;;18.30;8.05;;;;;;;;;;5036848;28;20099;-90
2022/06/07 04:33:23;;;;;;;20.80;8.48;;;;;;;;;;5041376;28;20126;-89
2022/06/07 04:35:49;;;;;;;20.80;7.35;;;;;;;;;;5029868;28;20025;-90
2022/06/07 04:38:15;;;;;;;11.13;5.32;;;;;;;;;;5043875;28;20113;-90
2022/06/07 04:40:42;;;;;;;12.98;5.57;;;;;;;;;;5026062;28;20112;-89
2022/06/07 04:43:09;;;;;;;11.88;5.43;;;;;;;;;;5039298;28;20032;-90
2022/06/07 04:45:35;;;;;;;11.52;4.63;;;;;;;;;;5022807;28;20232;-90
2022/06/07 04:48:01;;;;;;;17.60;5.97;;;;;;;;;;5023995;28;20026;-89
2022/06/07 04:50:27;;;;;;;9.85;4.20;;;;;;;;;;5015403;28;20635;-90
2022/06/07 04:52:53;;;;;;;19.80;6.38;;;;;;;;;;5036828;28;20034;-90
2022/06/07 04:55:20;;;;;;;16.33;5.53;;;;;;;;;;5028798;28;20041;-89
2022/06/07 04:57:46;;;;;;;13.13;6.70;;;;;;;;;;5039003;28;20057;-91
2022/06/07 05:00:14;;;;;;;12.48;4.60;;;;;;;;;;5024586;28;20052;-90
2022/06/07 05:02:41;;;;;;;13.18;5.00;;;;;;;;;;5021208;28;20052;-90
2022/06/07 05:05:07;;;;;;;19.23;6.40;;;;;;;;;;5026574;28;20028;-89
2022/06/07 05:07:33;;;;;;;10.25;4.90;;;;;;;;;;5038012;28;20033;-90
2022/06/07 05:09:59;;;;;;;12.32;5.05;;;;;;;;;;5041918;28;20027;-90
2022/06/07 05:12:25;;;;;;;14.98;6.30;;;;;;;;;;5022649;28;20034;-91
2022/06/07 05:14:52;;;;;;;11.82;4.82;;;;;;;;;;5024706;28;20059;-90
2022/06/07 05:17:18;;;;;;;12.35;5.70;;;;;;;;;;5025520;28;20025;-90
2022/06/07 05:19:47;;;;;;;10.98;4.07;;;;;;;;;;5045528;28;20037;-90
2022/06/07 05:22:13;;;;;;;7.03;3.80;;;;;;;;;;5024755;28;20044;-90
2022/06/07 05:24:39;;;;;;;7.15;4.10;;;;;;;;;;5024390;28;20400;-91
2022/06/07 05:27:15;;;;;;;7.78;5.15;;;;;;;;;;5025467;28;20111;-90
2022/06/07 05:29:55;;;;;;;5.03;2.95;;;;;;;;;;5020695;28;20041;-90
2022/06/07 05:32:22;;;;;;;17.38;6.32;;;;;;;;;;5038908;28;20112;-90
2022/06/07 05:34:48;;;;;;;8.23;4.28;;;;;;;;;;5023790;28;20021;-90
2022/06/07 05:37:18;;;;;;;17.55;5.97;;;;;;;;;;5025835;28;20079;-90
2022/06/07 05:39:44;;;;;;;11.27;4.40;;;;;;;;;;5019447;28;20769;-91
2022/06/07 05:42:11;;;;;;;13.13;6.90;;;;;;;;;;5018804;28;20683;-90
2022/06/07 05:44:38;;;;;;;15.43;6.35;;;;;;;;;;5027621;28;20599;-90
2022/06/07 05:47:04;;;;;;;12.73;4.75;;;;;;;;;;5020884;28;20063;-90
2022/06/07 05:49:30;;;;;;;19.05;6.35;;;;;;;;;;5041368;28;20037;-90
2022/06/07 05:51:56;;;;;;;15.57;5.00;;;;;;;;;;5021495;28;20037;-91
2022/06/07 05:54:23;;;;;;;9.60;4.72;;;;;;;;;;5022543;28;20037;-90
2022/06/07 05:56:49;;;;;;;4.93;3.28;;;;;;;;;;5023157;28;20505;-91
2022/06/07 05:59:16;;;;;;;11.93;4.82;;;;;;;;;;5020911;28;20051;-90
2022/06/07 06:01:42;;;;;;;14.40;6.07;;;;;;;;;;5018388;28;20033;-90
2022/06/07 06:04:08;;;;;;;10.60;4.88;;;;;;;;;;5027265;28;20060;-90
2022/06/07 06:06:35;;;;;;;10.35;5.65;;;;;;;;;;5040417;28;20033;-90
2022/06/07 06:11:46;;;;;;;8.10;4.72;;;;;;;;;;5040272;28;20052;-90
2022/06/07 06:14:12;;;;;;;16.17;4.47;;;;;;;;;;5024581;28;20085;-90
2022/06/07 06:16:38;;;;;;;14.02;3.85;;;;;;;;;;5019205;28;20064;-90
2022/06/07 06:19:05;;;;;;;4.55;2.13;;;;;;;;;;5020657;28;20025;-89
2022/06/07 06:21:43;;;;;;;8.80;3.78;;;;;;;;;;5034696;28;20068;-90
2022/06/07 06:24:09;;;;;;;12.70;3.08;;;;;;;;;;5040289;28;20573;-89
2022/06/07 06:26:37;;;;;;;9.38;4.00;;;;;;;;;;5020900;28;20047;-90
2022/06/07 06:29:03;;;;;;;12.25;2.63;;;;;;;;;;5038123;28;20053;-90
2022/06/07 06:31:29;;;;;;;4.80;2.30;;;;;;;;;;5020371;28;20033;-89
2022/06/07 06:33:55;;;;;;;7.25;3.85;;;;;;;;;;5016893;28;20031;-89
2022/06/07 06:36:26;;;;;;;10.90;3.67;;;;;;;;;;5025452;28;20032;-89
2022/06/07 06:38:52;;;;;;;4.90;1.70;;;;;;;;;;5015534;28;20025;-90
2022/06/07 06:41:30;;;;;;;11.70;3.03;;;;;;;;;;5022647;28;20666;-89
2022/06/07 06:43:57;;;;;;;5.07;2.35;;;;;;;;;;5021253;28;20480;-90
2022/06/07 06:46:24;;;;;;;6.38;2.90;;;;;;;;;;5024600;28;20407;-90
2022/06/07 06:48:51;;;;;;;11.65;3.35;;;;;;;;;;5027501;28;20032;-89
2022/06/07 06:51:18;;;;;;;6.53;2.92;;;;;;;;;;5022887;28;20029;-89
2022/06/07 06:53:45;;;;;;;3.95;2.38;;;;;;;;;;5024557;28;20029;-89
2022/06/07 06:56:12;;;;;;;3.58;1.83;;;;;;;;;;5031722;28;20094;-89
2022/06/07 06:58:38;;;;;;;6.88;1.40;;;;;;;;;;5026100;28;20573;-91
2022/06/07 07:01:12;;;;;;;4.50;2.13;;;;;;;;;;5024406;28;20104;-89
2022/06/07 07:03:39;;;;;;;4.75;2.10;;;;;;;;;;5039126;28;20052;-89
2022/06/07 07:06:06;;;;;;;4.50;1.42;;;;;;;;;;5018125;28;20037;-89
2022/06/07 07:08:33;;;;;;;5.35;3.00;;;;;;;;;;5044571;28;20028;-90
2022/06/07 07:11:03;;;;;;;9.13;2.65;;;;;;;;;;5029133;28;20393;-89
2022/06/07 07:13:30;;;;;;;14.13;2.85;;;;;;;;;;5024171;28;20025;-89
2022/06/07 07:15:56;;;;;;;18.23;2.70;;;;;;;;;;5026947;28;20035;-89
2022/06/07 07:18:22;;;;;;;14.45;2.35;;;;;;;;;;5028844;28;20044;-90
2022/06/07 07:20:48;;;;;;;6.20;1.35;;;;;;;;;;5023076;28;20485;-89
2022/06/07 07:23:14;;;;;;;11.85;3.53;;;;;;;;;;5015018;28;20040;-90
2022/06/07 07:25:40;;;;;;;7.55;2.53;;;;;;;;;;5026135;28;20576;-89
2022/06/07 07:28:06;;;;;;;9.13;2.05;;;;;;;;;;5021408;28;20481;-90
2022/06/07 07:30:32;;;;;;;9.88;2.53;;;;;;;;;;5018031;28;20652;-89
2022/06/07 07:32:58;;;;;;;15.38;2.70;;;;;;;;;;5020138;28;20029;-89
2022/06/07 07:35:25;;;;;;;10.88;1.77;;;;;;;;;;5029981;28;20116;-90
2022/06/07 07:37:51;;;;;;;12.90;2.30;;;;;;;;;;5030687;28;20021;-90
2022/06/07 07:40:17;;;;;;;10.70;2.55;;;;;;;;;;5024079;28;20029;-89
2022/06/07 07:42:43;;;;;;;9.95;2.75;;;;;;;;;;5024674;28;20029;-90
2022/06/07 07:45:10;;;;;;;9.43;1.48;;;;;;;;;;5026343;28;20025;-90
2022/06/07 07:47:36;;;;;;;10.90;2.17;;;;;;;;;;5019237;28;20158;-90
2022/06/07 07:50:11;;;;;;;9.38;2.00;;;;;;;;;;5018058;28;20041;-90
2022/06/07 07:52:37;;;;;;;13.38;2.35;;;;;;;;;;5027519;28;20024;-89
2022/06/07 07:55:04;;;;;;;11.77;2.65;;;;;;;;;;5015065;28;20079;-90
2022/06/07 07:57:31;;;;;;;14.20;2.45;;;;;;;;;;5026455;28;20492;-89
2022/06/07 07:59:57;;;;;;;13.30;2.25;;;;;;;;;;5040011;28;20017;-89
2022/06/07 08:02:23;;;;;;;8.93;1.80;;;;;;;;;;5026601;28;20087;-90
2022/06/07 08:04:49;;;;;;;9.20;1.23;;;;;;;;;;5022241;28;20038;-90
2022/06/07 08:07:16;;;;;;;13.05;1.50;;;;;;;;;;5029769;28;20457;-90
2022/06/07 08:09:42;;;;;;;12.00;3.47;;;;;;;;;;5019371;28;20022;-90
2022/06/07 08:12:08;;;;;;;8.02;2.30;;;;;;;;;;5023621;28;20029;-90
2022/06/07 08:14:35;;;;;;;13.55;2.28;;;;;;;;;;5024341;28;20017;-90
2022/06/07 08:17:03;;;;;;;14.75;2.05;;;;;;;;;;5017033;28;20634;-90
2022/06/07 08:19:30;;;;;;;12.00;2.05;;;;;;;;;;5023460;28;20496;-89
2022/06/07 08:21:56;;;;;;;12.27;2.03;;;;;;;;;;5024494;28;20477;-90
2022/06/07 08:24:22;;;;;;;8.88;3.17;;;;;;;;;;5031638;28;20029;-90
2022/06/07 08:26:49;;;;;;;10.68;2.05;;;;;;;;;;5015393;28;20037;-90
2022/06/07 08:29:16;;;;;;;13.32;2.53;;;;;;;;;;5041337;28;20049;-90
2022/06/07 08:31:42;;;;;;;5.78;1.98;;;;;;;;;;5040288;28;20060;-91
2022/06/07 08:39:39;;;;;;;11.45;1.50;;;;;;;;;;5039569;28;20096;-90
2022/06/07 08:42:24;;;;;;;9.82;1.95;;;;;;;;;;5020581;28;20029;-91
2022/06/07 08:44:50;;;;;;;9.13;1.95;;;;;;;;;;5025299;28;20217;-90
2022/06/07 08:47:23;;;;;;;10.10;1.75;;;;;;;;;;5024455;28;20029;-90
2022/06/07 08:49:49;;;;;;;4.65;1.75;;;;;;;;;;5020182;28;20060;-90
2022/06/07 08:52:15;;;;;;;10.25;2.10;;;;;;;;;;5023884;28;20071;-89
2022/06/07 08:54:42;;;;;;;10.65;2.00;;;;;;;;;;5023671;28;20029;-90
2022/06/07 08:57:17;;;;;;;8.55;2.13;;;;;;;;;;5024484;28;20033;-90
2022/06/07 08:59:47;;;;;;;9.43;1.90;;;;;;;;;;5021990;28;20029;-90
2022/06/07 09:02:13;;;;;;;13.68;2.60;;;;;;;;;;5023898;28;20028;-90
2022/06/07 09:04:40;;;;;;;5.60;1.50;;;;;;;;;;5025861;28;20579;-90
2022/06/07 09:07:13;;;;;;;9.52;1.63;;;;;;;;;;5024080;28;20079;-90
2022/06/07 09:12:29;;;;;;;14.25;2.63;;;;;;;;;;5040419;28;20075;-90
2022/06/07 09:15:09;;;;;;;7.80;1.70;;;;;;;;;;5026248;28;20132;-90
2022/06/07 09:17:36;;;;;;;10.50;2.05;;;;;;;;;;5029648;28;20020;-90
2022/06/07 09:20:04;;;;;;;11.55;1.65;;;;;;;;;;5027866;28;20174;-90
2022/06/07 09:22:40;;;;;;;10.48;2.13;;;;;;;;;;5029258;28;20443;-90
2022/06/07 09:25:06;;;;;;;;;;;;;;;;;;5027796;28;20029;-91
2022/06/07 09:27:33;;;;;;;11.35;1.67;;;;;;;;;;5019908;28;19916;-90
2022/06/07 09:30:33;;;;;;;11.27;1.80;;;;;;;;;;5024863;28;20057;-91
2022/06/07 09:33:06;;;;;;;9.55;2.17;;;;;;;;;;4985685;28;20182;-90
2022/06/07 09:35:39;;;;;;;175.73;16.45;;;;;;;;;;5029614;28;20045;-91
2022/06/07 09:38:07;;;;;;;47.17;4.75;;;;;;;;;;5031363;28;20048;-90
2022/06/07 09:40:37;;;;;;;8.10;1.83;;;;;;;;;;5042069;28;20342;-90
2022/06/07 09:43:08;;;;;;;10.57;2.00;;;;;;;;;;5027707;28;20029;-91
2022/06/07 09:45:39;;;;;;;14.00;2.55;;;;;;;;;;5042038;28;20017;-90
2022/06/07 09:48:19;;;;;;;9.82;1.90;;;;;;;;;;5040526;28;20450;-89
2022/06/07 09:50:53;;;;;;;9.05;1.95;;;;;;;;;;5039384;28;20025;-91
2022/06/07 09:53:19;;;;;;;15.35;3.47;;;;;;;;;;5043065;28;20025;-91
2022/06/07 09:55:48;;;;;;;12.20;1.70;;;;;;;;;;5025911;28;20722;-90
2022/06/07 09:58:34;;;;;;;5.65;2.30;;;;;;;;;;5025877;28;20029;-90
2022/06/07 10:01:04;;;;;;;9.40;2.67;;;;;;;;;;5023943;28;20232;-91
2022/06/07 10:03:36;;;;;;;9.18;1.42;;;;;;;;;;5027669;28;20373;-90
2022/06/07 10:06:02;;;;;;;6.00;1.85;;;;;;;;;;5040924;28;20086;-91
2022/06/07 10:08:36;;;;;;;8.02;1.52;;;;;;;;;;5037100;28;20022;-90
2022/06/07 10:11:23;;;;;;;5.57;1.58;;;;;;;;;;5021229;28;20600;-90
2022/06/07 10:13:52;;;;;;;3.83;1.15;;;;;;;;;;5026675;28;20112;-91
2022/06/07 10:16:30;;;;;;;7.63;2.03;;;;;;;;;;5025279;28;20397;-91
2022/06/07 10:19:05;;;;;;;10.48;2.20;;;;;;;;;;5039218;28;20488;-91
2022/06/07 10:21:43;;;;;;;10.37;2.20;;;;;;;;;;5026813;28;20036;-91
2022/06/07 10:24:28;;;;;;;12.30;2.60;;;;;;;;;;5024120;28;20287;-91
2022/06/07 10:26:57;;;;;;;5.53;1.60;;;;;;;;;;5019708;28;20053;-91
2022/06/07 10:29:50;;;;;;;6.97;1.50;;;;;;;;;;5040948;28;20057;-92
2022/06/07 10:32:19;;;;;;;3.85;0.80;;;;;;;;;;5015640;28;20029;-91
2022/06/07 10:34:54;;;;;;;5.40;1.40;;;;;;;;;;5021793;28;20021;-91
2022/06/07 10:37:29;;;;;;;10.13;1.70;;;;;;;;;;5024841;28;20170;-91
2022/06/07 10:40:04;;;;;;;23.63;2.03;;;;;;;;;;5020414;28;20033;-90
2022/06/07 10:42:41;;;;;;;14.30;3.65;;;;;;;;;;5021738;28;20025;-91
2022/06/07 10:45:11;;;;;;;10.63;2.00;;;;;;;;;;5018584;28;20497;-91
2022/06/07 10:47:58;;;;;;;7.07;2.58;;;;;;;;;;5020060;28;20507;-92
2022/06/07 10:50:31;;;;;;;15.07;1.95;;;;;;;;;;5015846;28;20757;-91
2022/06/07 10:53:07;;;;;;;3.92;1.13;;;;;;;;;;5021339;28;20032;-91
2022/06/07 10:55:38;;;;;;;7.20;3.20;;;;;;;;;;5039565;28;20025;-90
2022/06/07 10:58:07;;;;;;;10.13;1.45;;;;;;;;;;5021724;28;20112;-91
2022/06/07 11:00:36;;;;;;;9.95;1.90;;;;;;;;;;5028618;28;20028;-91
2022/06/07 11:03:05;;;;;;;7.93;1.55;;;;;;;;;;5026946;28;20039;-91
2022/06/07 11:11:18;;;;;;;9.48;2.03;;;;;;;;;;5039812;28;20044;-91
2022/06/07 11:13:44;;;;;;;8.25;1.52;;;;;;;;;;5024572;28;20369;-91
2022/06/07 11:16:22;;;;;;;11.05;1.70;;;;;;;;;;5020886;28;20028;-91
2022/06/07 11:18:48;;;;;;;6.50;1.50;;;;;;;;;;5020669;28;20037;-91
2022/06/07 11:21:42;;;;;;;5.47;1.83;;;;;;;;;;5024068;28;20067;-91
2022/06/07 11:24:16;;;;;;;3.65;1.10;;;;;;;;;;5022366;28;20042;-91
2022/06/07 11:26:52;;;;;;;2.67;1.10;;;;;;;;;;5022873;28;20025;-91
2022/06/07 11:29:29;;;;;;;7.95;1.80;;;;;;;;;;5024199;28;20052;-91
2022/06/07 11:31:55;;;;;;;13.82;2.92;;;;;;;;;;5021815;28;20039;-91
2022/06/07 11:34:22;;;;;;;5.28;1.48;;;;;;;;;;5027560;28;20163;-90
2022/06/07 11:36:48;;;;;;;6.82;1.80;;;;;;;;;;5027266;28;20051;-91
2022/06/07 11:39:20;;;;;;;4.70;1.38;;;;;;;;;;5023916;28;20041;-90
2022/06/07 11:41:51;;;;;;;6.10;1.40;;;;;;;;;;5025328;28;20033;-91
2022/06/07 11:44:17;;;;;;;10.13;2.17;;;;;;;;;;5024448;28;20041;-91
2022/06/07 11:46:50;;;;;;;4.70;1.35;;;;;;;;;;5019572;28;20041;-91
2022/06/07 11:49:25;;;;;;;3.25;1.20;;;;;;;;;;5026063;28;20112;-92
2022/06/07 11:52:00;;;;;;;4.70;1.00;;;;;;;;;;5026142;28;20106;-92
2022/06/07 11:54:53;;;;;;;5.00;1.10;;;;;;;;;;5023639;28;20358;-91
2022/06/07 11:57:24;;;;;;;5.07;1.48;;;;;;;;;;5027780;28;20036;-91
2022/06/07 11:59:51;;;;;;;2.55;1.38;;;;;;;;;;5040217;28;20028;-91
2022/06/07 12:02:17;;;;;;;3.63;1.23;;;;;;;;;;5020964;28;20435;-92
2022/06/07 12:04:43;;;;;;;5.63;1.17;;;;;;;;;;5021268;28;20049;-91
2022/06/07 12:07:09;;;;;;;7.70;1.70;;;;;;;;;;5023506;28;20040;-93
2022/06/07 12:09:36;;;;;;;4.07;1.40;;;;;;;;;;5023886;28;20461;-93
2022/06/07 12:12:18;;;;;;;10.85;1.17;;;;;;;;;;5039511;28;20043;-94
2022/06/07 12:14:49;;;;;;;8.23;1.60;;;;;;;;;;5026357;28;20483;-88
2022/06/07 12:17:21;;;;;;;5.50;1.67;;;;;;;;;;5020298;28;20039;-90
2022/06/07 12:19:47;;;;;;;8.98;1.52;;;;;;;;;;5039778;28;20255;-90
2022/06/07 12:22:15;;;;;;;6.60;1.90;;;;;;;;;;5019112;28;20116;-90
2022/06/07 12:24:42;;;;;;;6.60;1.63;;;;;;;;;;5005737;28;20504;-92
2022/06/07 12:27:31;;;;;;;3.33;1.50;;;;;;;;;;5021367;28;21462;-92
2022/06/07 12:30:24;;;;;;;4.97;1.60;;;;;;;;;;5031120;28;20048;-90
2022/06/07 12:32:51;;;;;;;7.72;1.55;;;;;;;;;;5021400;28;20033;-90
2022/06/07 12:35:26;;;;;;;5.72;1.27;;;;;;;;;;5037429;28;20475;-90
2022/06/07 12:37:57;;;;;;;4.75;1.50;;;;;;;;;;5022579;28;20033;-90
2022/06/07 12:40:25;;;;;;;8.70;1.50;;;;;;;;;;5016926;28;20545;-90
2022/06/07 12:42:51;;;;;;;11.98;2.97;;;;;;;;;;5021606;28;20041;-90
2022/06/07 12:45:43;;;;;;;5.20;1.60;;;;;;;;;;5024560;28;20037;-91
2022/06/07 12:48:14;;;;;;;6.43;1.92;;;;;;;;;;5017842;28;20033;-91
2022/06/07 12:50:41;;;;;;;7.75;2.53;;;;;;;;;;5017134;28;20100;-90
2022/06/07 12:53:07;;;;;;;10.50;1.42;;;;;;;;;;5020443;28;20039;-90
2022/06/07 12:55:36;;;;;;;9.85;1.95;;;;;;;;;;5021912;28;20331;-90
2022/06/07 12:58:04;;;;;;;13.95;2.45;;;;;;;;;;5040091;28;20021;-91
2022/06/07 13:00:34;;;;;;;7.15;1.88;;;;;;;;;;5020336;28;20068;-90
2022/06/07 13:03:05;;;;;;;14.98;5.32;;;;;;;;;;5023234;28;20025;-91
2022/06/07 13:05:33;;;;;;;7.15;2.65;;;;;;;;;;5020417;28;20242;-90
2022/06/07 13:08:01;;;;;;;11.60;2.63;;;;;;;;;;5022796;28;20325;-90
2022/06/07 13:10:36;;;;;;;8.20;1.70;;;;;;;;;;5022049;28;20099;-90
2022/06/07 13:13:02;;;;;;;;;;;;;;;;;;5025649;28;20040;-91
2022/06/07 13:15:31;;;;;;;12.75;2.42;;;;;;;;;;5026557;28;19920;-89
2022/06/07 13:18:05;;;;;;;5.97;1.48;;;;;;;;;;5020779;28;20032;-89
2022/06/07 13:20:32;;;;;;;11.27;1.63;;;;;;;;;;5022408;28;20082;-89
2022/06/07 13:22:58;;;;;;;5.53;1.92;;;;;;;;;;5021915;28;20358;-90
2022/06/07 13:25:29;;;;;;;7.90;1.33;;;;;;;;;;5023750;28;20497;-89
2022/06/07 13:28:04;;;;;;;3.92;1.05;;;;;;;;;;5019268;28;20411;-90
2022/06/07 13:30:33;;;;;;;11.77;2.20;;;;;;;;;;5027226;28;21557;-89
2022/06/07 13:33:14;;;;;;;1.92;0.98;;;;;;;;;;5014443;28;20033;-91
2022/06/07 13:35:42;;;;;;;7.03;1.60;;;;;;;;;;5034839;28;20416;-90
2022/06/07 13:38:33;;;;;;;11.27;1.92;;;;;;;;;;5037507;28;20040;-90
2022/06/07 13:41:20;;;;;;;10.90;1.65;;;;;;;;;;5037571;28;20533;-91
2022/06/07 13:43:58;;;;;;;5.60;2.10;;;;;;;;;;5016158;28;20476;-91
2022/06/07 13:46:24;;;;;;;7.70;2.10;;;;;;;;;;5015976;28;20049;-92
2022/06/07 13:54:53;;;;;;;4.82;1.45;;;;;;;;;;5032702;28;20156;-93
2022/06/07 13:57:19;;;;;;;5.00;1.45;;;;;;;;;;5017766;28;20041;-93
2022/06/07 13:59:47;;;;;;;9.82;1.55;;;;;;;;;;5024997;28;20041;-92
2022/06/07 14:02:13;;;;;;;8.45;1.55;;;;;;;;;;5034261;28;20030;-93
2022/06/07 14:04:39;;;;;;;6.70;1.67;;;;;;;;;;5015003;28;20052;-93
2022/06/07 14:07:09;;;;;;;7.68;1.95;;;;;;;;;;5035785;28;20025;-90
2022/06/07 14:09:35;;;;;;;11.70;1.50;;;;;;;;;;5019389;28;20041;-92
2022/06/07 14:12:01;;;;;;;7.60;1.45;;;;;;;;;;5016776;28;20479;-91
2022/06/07 14:14:27;;;;;;;7.10;1.73;;;;;;;;;;5020967;28;20033;-91
2022/06/07 14:17:00;;;;;;;5.40;1.45;;;;;;;;;;5027690;28;20518;-92
2022/06/07 14:19:41;;;;;;;7.72;1.30;;;;;;;;;;5022101;28;20040;-92
2022/06/07 14:22:18;;;;;;;8.43;1.73;;;;;;;;;;5019713;28;20524;-92
2022/06/07 14:24:50;;;;;;;10.82;3.70;;;;;;;;;;5021824;28;20032;-93
2022/06/07 14:27:18;;;;;;;10.65;2.03;;;;;;;;;;5018206;28;20059;-93
2022/06/07 14:29:44;;;;;;;7.22;1.80;;;;;;;;;;5014425;28;20674;-93
2022/06/07 14:32:18;;;;;;;4.68;1.85;;;;;;;;;;4996229;28;20034;-91
2022/06/07 14:34:45;;;;;;;6.57;1.63;;;;;;;;;;5001923;28;20079;-92
2022/06/07 14:37:16;;;;;;;8.23;2.28;;;;;;;;;;4994149;28;20521;-92
2022/06/07 14:39:43;;;;;;;8.45;2.00;;;;;;;;;;5018600;28;20530;-92
2022/06/07 14:42:09;;;;;;;4.18;1.65;;;;;;;;;;5013016;28;20385;-92
2022/06/07 14:44:35;;;;;;;8.25;1.80;;;;;;;;;;5002152;28;20040;-92
2022/06/07 14:47:02;;;;;;;8.70;2.00;;;;;;;;;;4992334;28;20481;-92
2022/06/07 14:49:35;;;;;;;9.25;2.03;;;;;;;;;;4993076;28;20033;-91
2022/06/07 14:52:04;;;;;;;7.55;1.40;;;;;;;;;;4998514;28;20513;-92
2022/06/07 14:54:32;;;;;;;3.65;1.40;;;;;;;;;;4992779;28;20040;-93
2022/06/07 14:56:59;;;;;;;3.65;1.58;;;;;;;;;;5003163;28;20157;-93
2022/06/07 14:59:25;;;;;;;9.35;1.50;;;;;;;;;;5004670;28;20036;-93
2022/06/07 15:01:53;;;;;;;5.75;1.38;;;;;;;;;;4995048;28;20037;-91
2022/06/07 15:04:22;;;;;;;9.75;1.80;;;;;;;;;;5005328;28;20457;-90
2022/06/07 15:06:48;;;;;;;10.05;1.92;;;;;;;;;;5002372;28;20037;-90
2022/06/07 15:09:18;;;;;;;6.07;1.48;;;;;;;;;;4995039;28;20034;-91
2022/06/07 15:11:53;;;;;;;7.15;1.60;;;;;;;;;;5004497;28;20030;-90
2022/06/07 15:14:19;;;;;;;7.93;2.00;;;;;;;;;;5004897;28;22141;-90
2022/06/07 15:17:06;;;;;;;9.07;1.83;;;;;;;;;;5011269;28;20029;-94
2022/06/07 15:22:48;;;;;;;10.05;1.55;;;;;;;;;;4962521;28;20121;-93